VMMC Airport Information

Runway Information
Runway 16 Length 10544 ft width 148 ft
Elevation 20 ft Threshold 1195 ft Heading 160
Runway 34 Length 10544 ft Width 148 ft
Elevation 20 ft Threshold 1215 ft Heading 340
Airport Frequencies
Type APP Name HONG KONG Frequency 126.3 MHZ
Type ATIS Name ATIS Frequency 126.4 MHZ
Type GND Name GND Frequency 121.725 MHZ
Type TWR Name TWR Frequency 118 MHZ
Airport Navaids
Type VOR-DME Name Macau Frequency 116400 KHZ
Type VOR Name Jiuzhou Frequency 117200 KHZ
Airport Weather Information & NOTAM
ADDS - METARS form results

(0925 UTC 15 December 2018)
Data provider http://aviationweather.gov/metar/data/
 
METAR text: VMMC 150900Z 03004KT 360V080 9000 FEW040 19/15 Q1021 NOSIG
Conditions at: VMMC (MACAO/MACAU , MO) observed 0900 UTC 15 December 2018
Temperature: 19.0°C (66°F)
Dewpoint: 15.0°C (59°F) [RH = 78%]
Pressure (altimeter): 30.15 inches Hg (1021.0 mb)
Winds: from the NNE (30 degrees) at 5 MPH (4 knots; 2.1 m/s)
Visibility: 6 miles ( 9 km)
Ceiling: at least 12,000 feet AGL
Clouds: few clouds at 4000 feet AGL
Weather: no significant weather observed at this time

METAR text: VMMC 150830Z 03005KT 340V070 9000 FEW040 20/15 Q1020 NOSIG
Conditions at: VMMC (MACAO/MACAU , MO) observed 0830 UTC 15 December 2018
Temperature: 20.0°C (68°F)
Dewpoint: 15.0°C (59°F) [RH = 73%]
Pressure (altimeter): 30.12 inches Hg (1020.0 mb)
Winds: from the NNE (30 degrees) at 6 MPH (5 knots; 2.6 m/s)
Visibility: 6 miles ( 9 km)
Ceiling: at least 12,000 feet AGL
Clouds: few clouds at 4000 feet AGL
Weather: no significant weather observed at this time

Forecast for: VMMC (MACAO/MACAU , MO)
Text: TAF VMMC 150500Z 1506/1612 36010KT 9000 FEW025
Forecast period: 0600 UTC 15 December 2018 to 1200 UTC 16 December 2018
Forecast type: FROM: standard forecast or significant change
Winds: from the N (360 degrees) at 12 MPH (10 knots; 5.1 m/s)
Visibility: 6 miles (9 km)
Ceiling: at least 12,000 feet AGL
Clouds: few clouds at 2500 feet AGL
Weather: no significant weather forecast for this period
Text: TEMPO 1506/1512 06008KT
Forecast period: 0600 to 1200 UTC 15 December 2018
Forecast type: TEMPORARY: The following changes expected for less than half the time period
Winds: from the ENE (60 degrees) at 9 MPH (8 knots; 4.1 m/s)
Visibility: missing
Ceiling: unknown
Clouds: missing
Weather: no significant weather forecast for this period